sensor_id;sensor_type;location;lat;lon;timestamp;P1;durP1;ratioP1;P2;durP2;ratioP2
21987;SDS011;11158;53.404;-1.510;2024-01-10T00:00:12;3.55;;;1.50;;
21987;SDS011;11158;53.404;-1.510;2024-01-10T00:02:38;3.75;;;1.13;;
21987;SDS011;11158;53.404;-1.510;2024-01-10T00:05:03;7.00;;;1.88;;
21987;SDS011;11158;53.404;-1.510;2024-01-10T00:07:29;5.85;;;1.10;;
21987;SDS011;11158;53.404;-1.510;2024-01-10T00:09:54;5.65;;;2.00;;
21987;SDS011;11158;53.404;-1.510;2024-01-10T00:14:46;7.45;;;1.60;;
21987;SDS011;11158;53.404;-1.510;2024-01-10T00:17:11;5.72;;;1.65;;
21987;SDS011;11158;53.404;-1.510;2024-01-10T00:19:37;7.43;;;1.60;;
21987;SDS011;11158;53.404;-1.510;2024-01-10T00:22:02;8.55;;;2.70;;
21987;SDS011;11158;53.404;-1.510;2024-01-10T00:26:54;5.60;;;1.63;;
21987;SDS011;11158;53.404;-1.510;2024-01-10T00:29:20;4.50;;;0.98;;
21987;SDS011;11158;53.404;-1.510;2024-01-10T00:31:46;11.02;;;2.85;;
21987;SDS011;11158;53.404;-1.510;2024-01-10T00:34:11;6.70;;;1.80;;
21987;SDS011;11158;53.404;-1.510;2024-01-10T00:36:37;5.10;;;1.33;;
21987;SDS011;11158;53.404;-1.510;2024-01-10T00:39:02;2.40;;;0.90;;
21987;SDS011;11158;53.404;-1.510;2024-01-10T00:41:28;4.70;;;1.20;;
21987;SDS011;11158;53.404;-1.510;2024-01-10T00:43:53;8.32;;;1.85;;
21987;SDS011;11158;53.404;-1.510;2024-01-10T00:46:18;8.57;;;1.90;;
21987;SDS011;11158;53.404;-1.510;2024-01-10T00:48:47;5.85;;;1.80;;
21987;SDS011;11158;53.404;-1.510;2024-01-10T00:51:12;4.68;;;1.65;;
21987;SDS011;11158;53.404;-1.510;2024-01-10T00:53:38;8.43;;;2.03;;
21987;SDS011;11158;53.404;-1.510;2024-01-10T00:56:04;1.05;;;0.75;;
21987;SDS011;11158;53.404;-1.510;2024-01-10T00:58:30;4.70;;;1.02;;
21987;SDS011;11158;53.404;-1.510;2024-01-10T01:00:56;2.50;;;0.90;;
21987;SDS011;11158;53.404;-1.510;2024-01-10T01:03:21;6.00;;;1.20;;
21987;SDS011;11158;53.404;-1.510;2024-01-10T01:05:47;6.65;;;1.25;;
21987;SDS011;11158;53.404;-1.510;2024-01-10T01:08:12;8.65;;;1.13;;
21987;SDS011;11158;53.404;-1.510;2024-01-10T01:10:37;2.78;;;0.77;;
21987;SDS011;11158;53.404;-1.510;2024-01-10T01:13:03;4.90;;;0.70;;
21987;SDS011;11158;53.404;-1.510;2024-01-10T01:15:28;2.20;;;0.90;;
21987;SDS011;11158;53.404;-1.510;2024-01-10T01:17:57;2.25;;;0.75;;
21987;SDS011;11158;53.404;-1.510;2024-01-10T01:20:22;3.42;;;0.80;;
21987;SDS011;11158;53.404;-1.510;2024-01-10T01:22:48;1.60;;;0.73;;
21987;SDS011;11158;53.404;-1.510;2024-01-10T01:25:13;4.60;;;1.20;;
21987;SDS011;11158;53.404;-1.510;2024-01-10T01:27:39;5.18;;;0.90;;
21987;SDS011;11158;53.404;-1.510;2024-01-10T01:30:04;5.05;;;1.00;;
21987;SDS011;11158;53.404;-1.510;2024-01-10T01:34:56;3.63;;;0.63;;
21987;SDS011;11158;53.404;-1.510;2024-01-10T01:37:21;6.45;;;0.93;;
21987;SDS011;11158;53.404;-1.510;2024-01-10T01:39:47;1.98;;;0.73;;
21987;SDS011;11158;53.404;-1.510;2024-01-10T01:42:15;4.80;;;0.63;;
21987;SDS011;11158;53.404;-1.510;2024-01-10T01:44:40;5.00;;;0.80;;
21987;SDS011;11158;53.404;-1.510;2024-01-10T01:47:06;4.63;;;1.15;;
21987;SDS011;11158;53.404;-1.510;2024-01-10T01:49:31;1.48;;;0.57;;
21987;SDS011;11158;53.404;-1.510;2024-01-10T01:51:57;3.00;;;0.85;;
21987;SDS011;11158;53.404;-1.510;2024-01-10T01:56:48;5.72;;;0.70;;
21987;SDS011;11158;53.404;-1.510;2024-01-10T01:59:14;15.70;;;1.05;;
21987;SDS011;11158;53.404;-1.510;2024-01-10T02:01:40;2.35;;;0.70;;
21987;SDS011;11158;53.404;-1.510;2024-01-10T02:04:06;1.50;;;0.70;;
21987;SDS011;11158;53.404;-1.510;2024-01-10T02:06:32;2.95;;;0.63;;
21987;SDS011;11158;53.404;-1.510;2024-01-10T02:08:57;3.63;;;0.63;;
21987;SDS011;11158;53.404;-1.510;2024-01-10T02:11:23;4.47;;;0.57;;
21987;SDS011;11158;53.404;-1.510;2024-01-10T02:13:50;4.68;;;0.63;;
21987;SDS011;11158;53.404;-1.510;2024-01-10T02:16:16;1.55;;;0.68;;
21987;SDS011;11158;53.404;-1.510;2024-01-10T02:21:08;6.57;;;0.77;;
21987;SDS011;11158;53.404;-1.510;2024-01-10T02:23:33;4.32;;;0.70;;
21987;SDS011;11158;53.404;-1.510;2024-01-10T02:25:59;3.15;;;0.75;;
21987;SDS011;11158;53.404;-1.510;2024-01-10T02:28:24;5.65;;;0.70;;
21987;SDS011;11158;53.404;-1.510;2024-01-10T02:33:16;2.00;;;0.52;;
21987;SDS011;11158;53.404;-1.510;2024-01-10T02:35:42;3.40;;;0.90;;
21987;SDS011;11158;53.404;-1.510;2024-01-10T02:38:08;3.80;;;0.90;;
21987;SDS011;11158;53.404;-1.510;2024-01-10T02:40:33;1.63;;;0.45;;
21987;SDS011;11158;53.404;-1.510;2024-01-10T02:42:59;4.57;;;1.00;;
21987;SDS011;11158;53.404;-1.510;2024-01-10T02:45:24;4.80;;;1.38;;
21987;SDS011;11158;53.404;-1.510;2024-01-10T02:47:50;6.30;;;1.05;;
21987;SDS011;11158;53.404;-1.510;2024-01-10T02:50:15;5.88;;;1.30;;
21987;SDS011;11158;53.404;-1.510;2024-01-10T02:52:41;4.63;;;1.13;;
21987;SDS011;11158;53.404;-1.510;2024-01-10T02:55:07;3.60;;;0.80;;
21987;SDS011;11158;53.404;-1.510;2024-01-10T02:57:33;4.18;;;1.05;;
21987;SDS011;11158;53.404;-1.510;2024-01-10T03:02:24;6.40;;;1.20;;
21987;SDS011;11158;53.404;-1.510;2024-01-10T03:04:50;2.78;;;0.75;;
21987;SDS011;11158;53.404;-1.510;2024-01-10T03:07:16;4.68;;;0.93;;
21987;SDS011;11158;53.404;-1.510;2024-01-10T03:09:41;3.03;;;1.30;;
21987;SDS011;11158;53.404;-1.510;2024-01-10T03:12:10;4.57;;;1.20;;
21987;SDS011;11158;53.404;-1.510;2024-01-10T03:14:37;2.03;;;0.93;;
21987;SDS011;11158;53.404;-1.510;2024-01-10T03:17:02;6.70;;;1.48;;
21987;SDS011;11158;53.404;-1.510;2024-01-10T03:19:28;3.13;;;1.33;;
21987;SDS011;11158;53.404;-1.510;2024-01-10T03:21:53;4.45;;;1.67;;
21987;SDS011;11158;53.404;-1.510;2024-01-10T03:24:19;3.45;;;1.80;;
21987;SDS011;11158;53.404;-1.510;2024-01-10T03:26:44;6.00;;;1.60;;
21987;SDS011;11158;53.404;-1.510;2024-01-10T03:29:10;6.13;;;1.63;;
21987;SDS011;11158;53.404;-1.510;2024-01-10T03:31:35;3.92;;;1.73;;
21987;SDS011;11158;53.404;-1.510;2024-01-10T03:34:01;4.60;;;1.50;;
21987;SDS011;11158;53.404;-1.510;2024-01-10T03:36:28;5.65;;;1.73;;
21987;SDS011;11158;53.404;-1.510;2024-01-10T03:38:55;3.28;;;1.83;;
21987;SDS011;11158;53.404;-1.510;2024-01-10T03:41:20;6.43;;;1.60;;
21987;SDS011;11158;53.404;-1.510;2024-01-10T03:43:46;5.70;;;1.67;;
21987;SDS011;11158;53.404;-1.510;2024-01-10T03:46:12;5.25;;;2.08;;
21987;SDS011;11158;53.404;-1.510;2024-01-10T03:48:38;7.13;;;1.92;;
21987;SDS011;11158;53.404;-1.510;2024-01-10T03:51:12;5.65;;;2.00;;
21987;SDS011;11158;53.404;-1.510;2024-01-10T03:53:38;4.05;;;2.08;;
21987;SDS011;11158;53.404;-1.510;2024-01-10T03:56:04;6.60;;;2.65;;
21987;SDS011;11158;53.404;-1.510;2024-01-10T03:58:30;5.20;;;2.60;;
21987;SDS011;11158;53.404;-1.510;2024-01-10T04:00:55;7.50;;;2.40;;
21987;SDS011;11158;53.404;-1.510;2024-01-10T04:03:21;3.97;;;2.28;;
21987;SDS011;11158;53.404;-1.510;2024-01-10T04:05:46;3.65;;;1.92;;
21987;SDS011;11158;53.404;-1.510;2024-01-10T04:08:12;8.52;;;2.10;;
21987;SDS011;11158;53.404;-1.510;2024-01-10T04:10:38;6.75;;;2.78;;
21987;SDS011;11158;53.404;-1.510;2024-01-10T04:13:03;7.57;;;2.78;;
21987;SDS011;11158;53.404;-1.510;2024-01-10T04:15:29;5.32;;;2.65;;
21987;SDS011;11158;53.404;-1.510;2024-01-10T04:17:54;6.78;;;2.70;;
21987;SDS011;11158;53.404;-1.510;2024-01-10T04:20:20;7.97;;;3.05;;
21987;SDS011;11158;53.404;-1.510;2024-01-10T04:22:45;4.40;;;2.33;;
21987;SDS011;11158;53.404;-1.510;2024-01-10T04:25:11;6.15;;;3.30;;
21987;SDS011;11158;53.404;-1.510;2024-01-10T04:27:36;8.98;;;2.95;;
21987;SDS011;11158;53.404;-1.510;2024-01-10T04:30:02;5.93;;;3.30;;
21987;SDS011;11158;53.404;-1.510;2024-01-10T04:32:28;6.30;;;2.95;;
21987;SDS011;11158;53.404;-1.510;2024-01-10T04:34:53;6.32;;;3.17;;
21987;SDS011;11158;53.404;-1.510;2024-01-10T04:37:18;6.95;;;3.15;;
21987;SDS011;11158;53.404;-1.510;2024-01-10T04:39:44;5.72;;;2.90;;
21987;SDS011;11158;53.404;-1.510;2024-01-10T04:42:12;8.93;;;3.80;;
21987;SDS011;11158;53.404;-1.510;2024-01-10T04:44:38;7.85;;;3.83;;
21987;SDS011;11158;53.404;-1.510;2024-01-10T04:47:03;7.60;;;4.03;;
21987;SDS011;11158;53.404;-1.510;2024-01-10T04:49:29;12.82;;;4.53;;
21987;SDS011;11158;53.404;-1.510;2024-01-10T04:51:55;7.43;;;4.43;;
21987;SDS011;11158;53.404;-1.510;2024-01-10T04:54:20;10.82;;;4.68;;
21987;SDS011;11158;53.404;-1.510;2024-01-10T04:56:46;8.55;;;4.40;;
21987;SDS011;11158;53.404;-1.510;2024-01-10T04:59:11;9.82;;;5.05;;
21987;SDS011;11158;53.404;-1.510;2024-01-10T05:01:37;6.82;;;4.53;;
21987;SDS011;11158;53.404;-1.510;2024-01-10T05:04:02;12.18;;;5.53;;
21987;SDS011;11158;53.404;-1.510;2024-01-10T05:06:28;5.40;;;3.63;;
21987;SDS011;11158;53.404;-1.510;2024-01-10T05:08:54;7.78;;;3.97;;
21987;SDS011;11158;53.404;-1.510;2024-01-10T05:11:23;7.25;;;4.03;;
21987;SDS011;11158;53.404;-1.510;2024-01-10T05:13:49;7.72;;;5.13;;
21987;SDS011;11158;53.404;-1.510;2024-01-10T05:16:15;9.32;;;4.45;;
21987;SDS011;11158;53.404;-1.510;2024-01-10T05:18:41;9.70;;;5.03;;
21987;SDS011;11158;53.404;-1.510;2024-01-10T05:21:06;7.82;;;4.40;;
21987;SDS011;11158;53.404;-1.510;2024-01-10T05:23:32;9.40;;;4.75;;
21987;SDS011;11158;53.404;-1.510;2024-01-10T05:25:57;6.45;;;4.18;;
21987;SDS011;11158;53.404;-1.510;2024-01-10T05:28:23;10.15;;;6.13;;
21987;SDS011;11158;53.404;-1.510;2024-01-10T05:30:48;10.50;;;6.13;;
21987;SDS011;11158;53.404;-1.510;2024-01-10T05:33:14;13.32;;;6.88;;
21987;SDS011;11158;53.404;-1.510;2024-01-10T05:35:39;13.65;;;7.57;;
21987;SDS011;11158;53.404;-1.510;2024-01-10T05:38:05;12.73;;;6.78;;
21987;SDS011;11158;53.404;-1.510;2024-01-10T05:40:30;12.05;;;6.38;;
21987;SDS011;11158;53.404;-1.510;2024-01-10T05:42:56;10.85;;;5.25;;
21987;SDS011;11158;53.404;-1.510;2024-01-10T05:45:26;13.10;;;5.90;;
21987;SDS011;11158;53.404;-1.510;2024-01-10T05:47:53;10.85;;;5.15;;
21987;SDS011;11158;53.404;-1.510;2024-01-10T05:50:18;8.38;;;4.38;;
21987;SDS011;11158;53.404;-1.510;2024-01-10T05:52:44;9.30;;;5.10;;
21987;SDS011;11158;53.404;-1.510;2024-01-10T05:55:10;8.75;;;4.35;;
21987;SDS011;11158;53.404;-1.510;2024-01-10T05:57:36;6.85;;;4.15;;
21987;SDS011;11158;53.404;-1.510;2024-01-10T06:00:02;8.98;;;4.63;;
21987;SDS011;11158;53.404;-1.510;2024-01-10T06:02:28;10.57;;;5.57;;
21987;SDS011;11158;53.404;-1.510;2024-01-10T06:04:54;12.80;;;4.07;;
21987;SDS011;11158;53.404;-1.510;2024-01-10T06:07:19;8.60;;;3.75;;
21987;SDS011;11158;53.404;-1.510;2024-01-10T06:09:46;6.78;;;3.42;;
21987;SDS011;11158;53.404;-1.510;2024-01-10T06:12:11;7.47;;;3.10;;
21987;SDS011;11158;53.404;-1.510;2024-01-10T06:14:37;7.60;;;3.65;;
21987;SDS011;11158;53.404;-1.510;2024-01-10T06:17:02;9.85;;;4.35;;
21987;SDS011;11158;53.404;-1.510;2024-01-10T06:19:32;9.27;;;4.57;;
21987;SDS011;11158;53.404;-1.510;2024-01-10T06:21:57;17.00;;;5.82;;
21987;SDS011;11158;53.404;-1.510;2024-01-10T06:26:49;12.77;;;6.70;;
21987;SDS011;11158;53.404;-1.510;2024-01-10T06:29:18;19.08;;;9.95;;
21987;SDS011;11158;53.404;-1.510;2024-01-10T06:31:43;13.38;;;7.28;;
21987;SDS011;11158;53.404;-1.510;2024-01-10T06:34:09;20.75;;;6.25;;
21987;SDS011;11158;53.404;-1.510;2024-01-10T06:36:35;17.42;;;8.25;;
21987;SDS011;11158;53.404;-1.510;2024-01-10T06:39:01;16.65;;;6.53;;
21987;SDS011;11158;53.404;-1.510;2024-01-10T06:41:26;13.30;;;7.15;;
21987;SDS011;11158;53.404;-1.510;2024-01-10T06:43:52;15.13;;;8.43;;
21987;SDS011;11158;53.404;-1.510;2024-01-10T06:46:18;16.02;;;7.28;;
21987;SDS011;11158;53.404;-1.510;2024-01-10T06:48:44;23.13;;;8.80;;
21987;SDS011;11158;53.404;-1.510;2024-01-10T06:51:10;19.50;;;8.32;;
21987;SDS011;11158;53.404;-1.510;2024-01-10T06:53:37;19.48;;;8.68;;
21987;SDS011;11158;53.404;-1.510;2024-01-10T06:56:03;19.23;;;9.60;;
21987;SDS011;11158;53.404;-1.510;2024-01-10T06:58:28;15.68;;;8.63;;
21987;SDS011;11158;53.404;-1.510;2024-01-10T07:00:54;135.52;;;15.23;;
21987;SDS011;11158;53.404;-1.510;2024-01-10T07:03:19;16.60;;;8.13;;
21987;SDS011;11158;53.404;-1.510;2024-01-10T07:05:45;50.47;;;9.90;;
21987;SDS011;11158;53.404;-1.510;2024-01-10T07:08:10;262.23;;;20.20;;
21987;SDS011;11158;53.404;-1.510;2024-01-10T07:10:35;19.70;;;10.57;;
21987;SDS011;11158;53.404;-1.510;2024-01-10T07:13:03;34.58;;;10.95;;
21987;SDS011;11158;53.404;-1.510;2024-01-10T07:15:29;32.58;;;11.00;;
21987;SDS011;11158;53.404;-1.510;2024-01-10T07:17:55;90.90;;;14.95;;
21987;SDS011;11158;53.404;-1.510;2024-01-10T07:20:20;22.40;;;10.68;;
21987;SDS011;11158;53.404;-1.510;2024-01-10T07:22:46;27.30;;;11.13;;
21987;SDS011;11158;53.404;-1.510;2024-01-10T07:25:11;36.47;;;10.80;;
21987;SDS011;11158;53.404;-1.510;2024-01-10T07:27:42;17.98;;;11.20;;
21987;SDS011;11158;53.404;-1.510;2024-01-10T07:30:08;111.43;;;13.27;;
21987;SDS011;11158;53.404;-1.510;2024-01-10T07:35:07;13.45;;;7.00;;
21987;SDS011;11158;53.404;-1.510;2024-01-10T07:37:39;14.75;;;7.78;;
21987;SDS011;11158;53.404;-1.510;2024-01-10T07:40:06;13.25;;;8.68;;
21987;SDS011;11158;53.404;-1.510;2024-01-10T07:42:35;14.88;;;9.02;;
21987;SDS011;11158;53.404;-1.510;2024-01-10T07:45:02;16.35;;;7.50;;
21987;SDS011;11158;53.404;-1.510;2024-01-10T07:47:31;12.32;;;7.15;;
21987;SDS011;11158;53.404;-1.510;2024-01-10T07:50:00;12.40;;;6.40;;
21987;SDS011;11158;53.404;-1.510;2024-01-10T07:52:25;14.95;;;7.20;;
21987;SDS011;11158;53.404;-1.510;2024-01-10T07:54:51;11.60;;;7.28;;
21987;SDS011;11158;53.404;-1.510;2024-01-10T07:57:16;10.43;;;6.70;;
21987;SDS011;11158;53.404;-1.510;2024-01-10T07:59:43;13.18;;;8.15;;
21987;SDS011;11158;53.404;-1.510;2024-01-10T08:02:10;11.07;;;7.28;;
21987;SDS011;11158;53.404;-1.510;2024-01-10T08:04:37;14.48;;;6.80;;
21987;SDS011;11158;53.404;-1.510;2024-01-10T08:07:02;15.13;;;7.80;;
21987;SDS011;11158;53.404;-1.510;2024-01-10T08:09:28;13.82;;;8.95;;
21987;SDS011;11158;53.404;-1.510;2024-01-10T08:11:53;12.88;;;7.65;;
21987;SDS011;11158;53.404;-1.510;2024-01-10T08:14:19;12.55;;;7.45;;
21987;SDS011;11158;53.404;-1.510;2024-01-10T08:16:44;12.10;;;7.07;;
21987;SDS011;11158;53.404;-1.510;2024-01-10T08:19:10;11.68;;;6.72;;
21987;SDS011;11158;53.404;-1.510;2024-01-10T08:21:36;11.13;;;6.75;;
21987;SDS011;11158;53.404;-1.510;2024-01-10T08:24:02;16.25;;;8.75;;
21987;SDS011;11158;53.404;-1.510;2024-01-10T08:26:28;12.57;;;7.63;;
21987;SDS011;11158;53.404;-1.510;2024-01-10T08:28:53;13.32;;;5.57;;
21987;SDS011;11158;53.404;-1.510;2024-01-10T08:31:19;15.88;;;9.13;;
21987;SDS011;11158;53.404;-1.510;2024-01-10T08:33:44;16.10;;;8.07;;
21987;SDS011;11158;53.404;-1.510;2024-01-10T08:36:11;12.32;;;6.57;;
21987;SDS011;11158;53.404;-1.510;2024-01-10T08:38:37;19.10;;;8.23;;
21987;SDS011;11158;53.404;-1.510;2024-01-10T08:41:03;19.95;;;8.40;;
21987;SDS011;11158;53.404;-1.510;2024-01-10T08:43:29;20.25;;;10.15;;
21987;SDS011;11158;53.404;-1.510;2024-01-10T08:45:55;27.73;;;11.00;;
21987;SDS011;11158;53.404;-1.510;2024-01-10T08:48:22;26.48;;;11.80;;
21987;SDS011;11158;53.404;-1.510;2024-01-10T08:50:48;21.42;;;10.70;;
21987;SDS011;11158;53.404;-1.510;2024-01-10T08:53:14;23.08;;;8.88;;
21987;SDS011;11158;53.404;-1.510;2024-01-10T08:55:39;25.45;;;10.35;;
21987;SDS011;11158;53.404;-1.510;2024-01-10T08:58:04;21.42;;;9.65;;
21987;SDS011;11158;53.404;-1.510;2024-01-10T09:00:30;21.83;;;8.23;;
21987;SDS011;11158;53.404;-1.510;2024-01-10T09:02:56;26.55;;;9.60;;
21987;SDS011;11158;53.404;-1.510;2024-01-10T09:05:22;16.38;;;7.97;;
21987;SDS011;11158;53.404;-1.510;2024-01-10T09:07:47;19.83;;;9.18;;
21987;SDS011;11158;53.404;-1.510;2024-01-10T09:10:13;16.20;;;7.88;;
21987;SDS011;11158;53.404;-1.510;2024-01-10T09:12:38;21.42;;;9.90;;
21987;SDS011;11158;53.404;-1.510;2024-01-10T09:15:04;19.23;;;9.20;;
21987;SDS011;11158;53.404;-1.510;2024-01-10T09:17:30;25.10;;;8.23;;
21987;SDS011;11158;53.404;-1.510;2024-01-10T09:19:55;17.42;;;7.43;;
21987;SDS011;11158;53.404;-1.510;2024-01-10T09:22:21;14.90;;;7.75;;
21987;SDS011;11158;53.404;-1.510;2024-01-10T09:24:46;9.98;;;5.28;;
21987;SDS011;11158;53.404;-1.510;2024-01-10T09:27:12;14.40;;;7.05;;
21987;SDS011;11158;53.404;-1.510;2024-01-10T09:29:37;11.60;;;5.80;;
21987;SDS011;11158;53.404;-1.510;2024-01-10T09:32:03;12.52;;;6.63;;
21987;SDS011;11158;53.404;-1.510;2024-01-10T09:34:29;9.90;;;5.70;;
21987;SDS011;11158;53.404;-1.510;2024-01-10T09:36:54;16.02;;;6.20;;
21987;SDS011;11158;53.404;-1.510;2024-01-10T09:39:20;11.95;;;6.45;;
21987;SDS011;11158;53.404;-1.510;2024-01-10T09:41:46;12.27;;;5.53;;
21987;SDS011;11158;53.404;-1.510;2024-01-10T09:44:14;11.85;;;5.68;;
21987;SDS011;11158;53.404;-1.510;2024-01-10T09:46:42;13.02;;;6.70;;
21987;SDS011;11158;53.404;-1.510;2024-01-10T09:49:11;10.05;;;6.10;;
21987;SDS011;11158;53.404;-1.510;2024-01-10T09:51:36;11.85;;;6.03;;
21987;SDS011;11158;53.404;-1.510;2024-01-10T09:54:02;9.07;;;5.72;;
21987;SDS011;11158;53.404;-1.510;2024-01-10T09:56:30;12.23;;;5.75;;
21987;SDS011;11158;53.404;-1.510;2024-01-10T09:58:58;12.13;;;5.70;;
21987;SDS011;11158;53.404;-1.510;2024-01-10T10:01:26;8.15;;;4.63;;
21987;SDS011;11158;53.404;-1.510;2024-01-10T10:03:52;10.50;;;6.35;;
21987;SDS011;11158;53.404;-1.510;2024-01-10T10:06:21;10.40;;;5.80;;
21987;SDS011;11158;53.404;-1.510;2024-01-10T10:08:46;9.48;;;6.93;;
21987;SDS011;11158;53.404;-1.510;2024-01-10T10:11:12;10.55;;;6.47;;
21987;SDS011;11158;53.404;-1.510;2024-01-10T10:13:40;12.02;;;7.03;;
21987;SDS011;11158;53.404;-1.510;2024-01-10T10:16:07;10.45;;;6.40;;
21987;SDS011;11158;53.404;-1.510;2024-01-10T10:18:35;14.07;;;7.63;;
21987;SDS011;11158;53.404;-1.510;2024-01-10T10:23:40;11.32;;;5.90;;
21987;SDS011;11158;53.404;-1.510;2024-01-10T10:26:13;9.30;;;6.30;;
21987;SDS011;11158;53.404;-1.510;2024-01-10T10:28:49;10.20;;;5.00;;
21987;SDS011;11158;53.404;-1.510;2024-01-10T10:31:17;8.48;;;4.30;;
21987;SDS011;11158;53.404;-1.510;2024-01-10T10:33:43;6.65;;;3.92;;
21987;SDS011;11158;53.404;-1.510;2024-01-10T10:36:09;7.88;;;4.97;;
21987;SDS011;11158;53.404;-1.510;2024-01-10T10:41:03;5.68;;;3.30;;
21987;SDS011;11158;53.404;-1.510;2024-01-10T10:43:32;5.18;;;3.15;;
21987;SDS011;11158;53.404;-1.510;2024-01-10T10:46:00;6.47;;;3.10;;
21987;SDS011;11158;53.404;-1.510;2024-01-10T10:48:26;10.75;;;5.47;;
21987;SDS011;11158;53.404;-1.510;2024-01-10T10:54:02;4.93;;;3.25;;
21987;SDS011;11158;53.404;-1.510;2024-01-10T10:56:29;4.43;;;2.70;;
21987;SDS011;11158;53.404;-1.510;2024-01-10T10:58:58;5.47;;;2.63;;
21987;SDS011;11158;53.404;-1.510;2024-01-10T11:01:25;5.00;;;2.80;;
21987;SDS011;11158;53.404;-1.510;2024-01-10T11:03:52;2.80;;;1.92;;
21987;SDS011;11158;53.404;-1.510;2024-01-10T11:06:19;3.15;;;2.05;;
21987;SDS011;11158;53.404;-1.510;2024-01-10T11:22:51;3.83;;;2.15;;
21987;SDS011;11158;53.404;-1.510;2024-01-10T11:25:25;5.25;;;3.22;;
21987;SDS011;11158;53.404;-1.510;2024-01-10T11:27:54;6.18;;;3.45;;
21987;SDS011;11158;53.404;-1.510;2024-01-10T11:33:00;7.00;;;3.55;;
21987;SDS011;11158;53.404;-1.510;2024-01-10T11:36:05;6.13;;;4.25;;
21987;SDS011;11158;53.404;-1.510;2024-01-10T11:38:32;9.65;;;5.40;;
21987;SDS011;11158;53.404;-1.510;2024-01-10T11:40:58;9.30;;;4.25;;
21987;SDS011;11158;53.404;-1.510;2024-01-10T11:43:23;13.30;;;7.22;;
21987;SDS011;11158;53.404;-1.510;2024-01-10T11:45:52;14.20;;;8.43;;
21987;SDS011;11158;53.404;-1.510;2024-01-10T11:48:26;13.93;;;9.18;;
21987;SDS011;11158;53.404;-1.510;2024-01-10T11:50:53;15.90;;;8.43;;
21987;SDS011;11158;53.404;-1.510;2024-01-10T11:56:11;14.82;;;7.95;;
21987;SDS011;11158;53.404;-1.510;2024-01-10T12:01:30;17.08;;;10.82;;
21987;SDS011;11158;53.404;-1.510;2024-01-10T12:03:56;12.40;;;6.80;;
21987;SDS011;11158;53.404;-1.510;2024-01-10T12:06:23;20.88;;;10.95;;
21987;SDS011;11158;53.404;-1.510;2024-01-10T12:08:50;23.27;;;10.35;;
21987;SDS011;11158;53.404;-1.510;2024-01-10T12:11:16;23.45;;;10.35;;
21987;SDS011;11158;53.404;-1.510;2024-01-10T12:13:41;19.25;;;10.23;;
21987;SDS011;11158;53.404;-1.510;2024-01-10T12:18:32;17.63;;;8.73;;
21987;SDS011;11158;53.404;-1.510;2024-01-10T12:23:24;18.80;;;9.88;;
21987;SDS011;11158;53.404;-1.510;2024-01-10T12:28:15;15.97;;;8.93;;
21987;SDS011;11158;53.404;-1.510;2024-01-10T12:30:41;16.63;;;9.02;;
21987;SDS011;11158;53.404;-1.510;2024-01-10T12:35:34;15.60;;;10.32;;
21987;SDS011;11158;53.404;-1.510;2024-01-10T12:40:24;16.17;;;9.23;;
21987;SDS011;11158;53.404;-1.510;2024-01-10T12:43:01;15.30;;;9.80;;
21987;SDS011;11158;53.404;-1.510;2024-01-10T12:45:27;29.05;;;9.13;;
21987;SDS011;11158;53.404;-1.510;2024-01-10T12:47:53;13.68;;;8.63;;
21987;SDS011;11158;53.404;-1.510;2024-01-10T12:50:19;27.13;;;8.55;;
21987;SDS011;11158;53.404;-1.510;2024-01-10T12:55:10;13.23;;;9.40;;
21987;SDS011;11158;53.404;-1.510;2024-01-10T12:57:36;15.57;;;9.30;;
21987;SDS011;11158;53.404;-1.510;2024-01-10T13:00:01;17.10;;;9.90;;
21987;SDS011;11158;53.404;-1.510;2024-01-10T13:02:31;12.68;;;7.47;;
21987;SDS011;11158;53.404;-1.510;2024-01-10T13:05:02;11.38;;;7.05;;
21987;SDS011;11158;53.404;-1.510;2024-01-10T13:07:31;10.82;;;6.28;;
21987;SDS011;11158;53.404;-1.510;2024-01-10T13:09:59;8.52;;;6.05;;
21987;SDS011;11158;53.404;-1.510;2024-01-10T13:14:49;8.33;;;6.10;;
21987;SDS011;11158;53.404;-1.510;2024-01-10T13:17:15;9.60;;;6.43;;
21987;SDS011;11158;53.404;-1.510;2024-01-10T13:19:41;10.68;;;6.68;;
21987;SDS011;11158;53.404;-1.510;2024-01-10T13:22:10;9.82;;;6.30;;
21987;SDS011;11158;53.404;-1.510;2024-01-10T13:24:38;10.52;;;7.30;;
21987;SDS011;11158;53.404;-1.510;2024-01-10T13:27:04;10.95;;;6.90;;
21987;SDS011;11158;53.404;-1.510;2024-01-10T13:29:29;8.15;;;6.07;;
21987;SDS011;11158;53.404;-1.510;2024-01-10T13:31:55;12.13;;;6.00;;
21987;SDS011;11158;53.404;-1.510;2024-01-10T13:34:20;10.43;;;6.28;;
21987;SDS011;11158;53.404;-1.510;2024-01-10T13:36:46;16.35;;;8.70;;
21987;SDS011;11158;53.404;-1.510;2024-01-10T13:39:12;11.25;;;6.93;;
21987;SDS011;11158;53.404;-1.510;2024-01-10T13:41:40;10.40;;;6.35;;
21987;SDS011;11158;53.404;-1.510;2024-01-10T13:46:31;14.30;;;8.60;;
21987;SDS011;11158;53.404;-1.510;2024-01-10T13:51:21;17.30;;;9.83;;
21987;SDS011;11158;53.404;-1.510;2024-01-10T13:53:47;14.15;;;8.27;;
21987;SDS011;11158;53.404;-1.510;2024-01-10T13:58:37;11.47;;;7.07;;
21987;SDS011;11158;53.404;-1.510;2024-01-10T14:03:28;10.80;;;7.50;;
21987;SDS011;11158;53.404;-1.510;2024-01-10T14:08:19;7.43;;;6.55;;
21987;SDS011;11158;53.404;-1.510;2024-01-10T14:13:10;6.97;;;5.57;;
21987;SDS011;11158;53.404;-1.510;2024-01-10T14:15:36;11.70;;;5.93;;
21987;SDS011;11158;53.404;-1.510;2024-01-10T14:20:26;7.50;;;5.07;;
21987;SDS011;11158;53.404;-1.510;2024-01-10T14:22:52;7.25;;;5.63;;
21987;SDS011;11158;53.404;-1.510;2024-01-10T14:25:18;10.25;;;6.10;;
21987;SDS011;11158;53.404;-1.510;2024-01-10T14:27:45;7.70;;;5.80;;
21987;SDS011;11158;53.404;-1.510;2024-01-10T14:32:36;8.82;;;7.15;;
21987;SDS011;11158;53.404;-1.510;2024-01-10T14:37:29;9.65;;;6.30;;
21987;SDS011;11158;53.404;-1.510;2024-01-10T14:42:21;10.95;;;6.80;;
21987;SDS011;11158;53.404;-1.510;2024-01-10T14:44:46;11.25;;;7.80;;
21987;SDS011;11158;53.404;-1.510;2024-01-10T14:49:37;11.50;;;8.43;;
21987;SDS011;11158;53.404;-1.510;2024-01-10T14:52:02;9.90;;;7.40;;
21987;SDS011;11158;53.404;-1.510;2024-01-10T14:56:53;8.48;;;6.03;;
21987;SDS011;11158;53.404;-1.510;2024-01-10T15:01:45;8.68;;;4.50;;
21987;SDS011;11158;53.404;-1.510;2024-01-10T15:04:11;10.13;;;5.22;;
21987;SDS011;11158;53.404;-1.510;2024-01-10T15:06:46;7.55;;;5.15;;
21987;SDS011;11158;53.404;-1.510;2024-01-10T15:09:12;9.30;;;5.88;;
21987;SDS011;11158;53.404;-1.510;2024-01-10T15:11:39;9.48;;;6.05;;
21987;SDS011;11158;53.404;-1.510;2024-01-10T15:14:06;8.82;;;5.63;;
21987;SDS011;11158;53.404;-1.510;2024-01-10T15:16:32;8.82;;;5.45;;
21987;SDS011;11158;53.404;-1.510;2024-01-10T15:21:25;83.28;;;9.73;;
21987;SDS011;11158;53.404;-1.510;2024-01-10T15:26:17;27.48;;;6.93;;
21987;SDS011;11158;53.404;-1.510;2024-01-10T15:31:18;19.23;;;6.80;;
21987;SDS011;11158;53.404;-1.510;2024-01-10T15:33:44;25.63;;;6.05;;
21987;SDS011;11158;53.404;-1.510;2024-01-10T15:38:39;9.32;;;5.53;;
21987;SDS011;11158;53.404;-1.510;2024-01-10T15:41:08;8.65;;;5.05;;
21987;SDS011;11158;53.404;-1.510;2024-01-10T15:43:35;32.17;;;6.32;;
21987;SDS011;11158;53.404;-1.510;2024-01-10T15:46:04;9.68;;;5.53;;
21987;SDS011;11158;53.404;-1.510;2024-01-10T15:50:56;7.57;;;4.82;;
21987;SDS011;11158;53.404;-1.510;2024-01-10T15:53:22;8.55;;;5.35;;
21987;SDS011;11158;53.404;-1.510;2024-01-10T15:58:16;8.35;;;5.93;;
21987;SDS011;11158;53.404;-1.510;2024-01-10T16:00:42;6.80;;;5.05;;
21987;SDS011;11158;53.404;-1.510;2024-01-10T16:05:33;6.20;;;4.60;;
21987;SDS011;11158;53.404;-1.510;2024-01-10T16:10:24;8.97;;;5.37;;
21987;SDS011;11158;53.404;-1.510;2024-01-10T16:12:51;14.93;;;5.60;;
21987;SDS011;11158;53.404;-1.510;2024-01-10T16:15:18;17.60;;;6.30;;
21987;SDS011;11158;53.404;-1.510;2024-01-10T16:20:10;11.60;;;5.47;;
21987;SDS011;11158;53.404;-1.510;2024-01-10T16:22:37;8.88;;;5.65;;
21987;SDS011;11158;53.404;-1.510;2024-01-10T16:27:29;340.27;;;20.77;;